sensor_id;sensor_type;location;lat;lon;timestamp;P1;durP1;ratioP1;P2;durP2;ratioP2
4642;SDS011;2334;48.710;9.622;2024-03-23T00:51:11;9.20;;;5.70;;
4642;SDS011;2334;48.710;9.622;2024-03-23T00:53:38;6.47;;;4.30;;
4642;SDS011;2334;48.710;9.622;2024-03-23T00:56:04;9.23;;;4.30;;
4642;SDS011;2334;48.710;9.622;2024-03-23T00:58:30;6.30;;;4.47;;
4642;SDS011;2334;48.710;9.622;2024-03-23T01:00:57;9.53;;;5.50;;
4642;SDS011;2334;48.710;9.622;2024-03-23T01:03:23;18.53;;;5.60;;
4642;SDS011;2334;48.710;9.622;2024-03-23T01:05:50;16.47;;;5.30;;
4642;SDS011;2334;48.710;9.622;2024-03-23T01:08:17;5.17;;;4.40;;
4642;SDS011;2334;48.710;9.622;2024-03-23T01:10:53;6.97;;;4.53;;
4642;SDS011;2334;48.710;9.622;2024-03-23T01:13:19;8.40;;;4.63;;
4642;SDS011;2334;48.710;9.622;2024-03-23T01:15:48;9.87;;;4.07;;
4642;SDS011;2334;48.710;9.622;2024-03-23T01:18:14;9.03;;;4.73;;
4642;SDS011;2334;48.710;9.622;2024-03-23T01:20:41;9.50;;;4.93;;
4642;SDS011;2334;48.710;9.622;2024-03-23T01:23:06;7.10;;;4.43;;
4642;SDS011;2334;48.710;9.622;2024-03-23T01:25:35;8.90;;;4.67;;
4642;SDS011;2334;48.710;9.622;2024-03-23T01:28:01;9.70;;;4.83;;
4642;SDS011;2334;48.710;9.622;2024-03-23T01:30:28;9.27;;;4.93;;
4642;SDS011;2334;48.710;9.622;2024-03-23T01:32:54;16.23;;;5.87;;
4642;SDS011;2334;48.710;9.622;2024-03-23T01:35:20;7.47;;;4.80;;
4642;SDS011;2334;48.710;9.622;2024-03-23T01:37:46;8.10;;;4.70;;
4642;SDS011;2334;48.710;9.622;2024-03-23T01:40:13;12.13;;;4.70;;
4642;SDS011;2334;48.710;9.622;2024-03-23T01:42:42;8.90;;;4.47;;
4642;SDS011;2334;48.710;9.622;2024-03-23T01:45:20;7.30;;;5.30;;
4642;SDS011;2334;48.710;9.622;2024-03-23T01:47:46;4.67;;;4.20;;
4642;SDS011;2334;48.710;9.622;2024-03-23T01:50:13;14.53;;;4.60;;
4642;SDS011;2334;48.710;9.622;2024-03-23T01:52:40;10.40;;;4.30;;
4642;SDS011;2334;48.710;9.622;2024-03-23T01:55:07;8.93;;;5.10;;
4642;SDS011;2334;48.710;9.622;2024-03-23T01:57:33;6.80;;;4.50;;
4642;SDS011;2334;48.710;9.622;2024-03-23T02:00:02;8.30;;;5.07;;
4642;SDS011;2334;48.710;9.622;2024-03-23T02:02:29;8.83;;;4.37;;
4642;SDS011;2334;48.710;9.622;2024-03-23T02:04:55;6.50;;;5.07;;
4642;SDS011;2334;48.710;9.622;2024-03-23T02:07:21;7.50;;;4.10;;
4642;SDS011;2334;48.710;9.622;2024-03-23T02:09:48;10.67;;;5.50;;
4642;SDS011;2334;48.710;9.622;2024-03-23T02:12:15;8.77;;;5.00;;
4642;SDS011;2334;48.710;9.622;2024-03-23T02:14:43;8.20;;;5.10;;
4642;SDS011;2334;48.710;9.622;2024-03-23T02:17:10;7.27;;;4.50;;
4642;SDS011;2334;48.710;9.622;2024-03-23T02:19:37;9.03;;;3.97;;
4642;SDS011;2334;48.710;9.622;2024-03-23T02:22:03;5.97;;;4.70;;
4642;SDS011;2334;48.710;9.622;2024-03-23T02:24:32;10.87;;;4.87;;
4642;SDS011;2334;48.710;9.622;2024-03-23T02:26:59;7.20;;;4.60;;
4642;SDS011;2334;48.710;9.622;2024-03-23T02:29:26;8.03;;;4.27;;
4642;SDS011;2334;48.710;9.622;2024-03-23T02:31:51;6.37;;;4.50;;
4642;SDS011;2334;48.710;9.622;2024-03-23T02:34:18;6.90;;;4.40;;
4642;SDS011;2334;48.710;9.622;2024-03-23T02:36:44;6.07;;;4.03;;
4642;SDS011;2334;48.710;9.622;2024-03-23T02:39:11;5.50;;;4.80;;
4642;SDS011;2334;48.710;9.622;2024-03-23T02:41:38;6.47;;;5.20;;
4642;SDS011;2334;48.710;9.622;2024-03-23T02:44:05;6.47;;;4.50;;
4642;SDS011;2334;48.710;9.622;2024-03-23T02:46:32;7.27;;;4.00;;
4642;SDS011;2334;48.710;9.622;2024-03-23T02:48:58;10.03;;;5.80;;
4642;SDS011;2334;48.710;9.622;2024-03-23T02:51:24;9.80;;;4.13;;
4642;SDS011;2334;48.710;9.622;2024-03-23T02:53:51;7.07;;;4.30;;
4642;SDS011;2334;48.710;9.622;2024-03-23T02:56:17;6.40;;;4.63;;
4642;SDS011;2334;48.710;9.622;2024-03-23T02:58:45;10.57;;;4.90;;
4642;SDS011;2334;48.710;9.622;2024-03-23T03:01:11;12.13;;;5.63;;
4642;SDS011;2334;48.710;9.622;2024-03-23T03:03:38;7.43;;;5.47;;
4642;SDS011;2334;48.710;9.622;2024-03-23T03:06:04;5.20;;;4.70;;
4642;SDS011;2334;48.710;9.622;2024-03-23T03:08:31;7.10;;;5.47;;
4642;SDS011;2334;48.710;9.622;2024-03-23T03:10:57;9.33;;;4.87;;
4642;SDS011;2334;48.710;9.622;2024-03-23T03:13:23;6.10;;;4.90;;
4642;SDS011;2334;48.710;9.622;2024-03-23T03:15:51;8.03;;;5.40;;
4642;SDS011;2334;48.710;9.622;2024-03-23T03:18:18;7.57;;;4.60;;
4642;SDS011;2334;48.710;9.622;2024-03-23T03:20:44;13.53;;;4.50;;
4642;SDS011;2334;48.710;9.622;2024-03-23T03:23:11;6.00;;;4.53;;
4642;SDS011;2334;48.710;9.622;2024-03-23T03:25:37;4.77;;;3.80;;
4642;SDS011;2334;48.710;9.622;2024-03-23T03:28:04;10.60;;;4.73;;
4642;SDS011;2334;48.710;9.622;2024-03-23T03:30:31;10.90;;;4.40;;
4642;SDS011;2334;48.710;9.622;2024-03-23T03:32:59;5.37;;;4.30;;
4642;SDS011;2334;48.710;9.622;2024-03-23T03:35:25;6.57;;;4.70;;
4642;SDS011;2334;48.710;9.622;2024-03-23T03:37:52;5.73;;;4.87;;
4642;SDS011;2334;48.710;9.622;2024-03-23T03:40:18;5.70;;;4.07;;
4642;SDS011;2334;48.710;9.622;2024-03-23T03:42:45;6.80;;;4.70;;
4642;SDS011;2334;48.710;9.622;2024-03-23T03:45:11;4.93;;;3.87;;
4642;SDS011;2334;48.710;9.622;2024-03-23T03:47:37;5.97;;;4.47;;
4642;SDS011;2334;48.710;9.622;2024-03-23T03:50:05;10.90;;;5.03;;
4642;SDS011;2334;48.710;9.622;2024-03-23T03:52:32;6.90;;;4.50;;
4642;SDS011;2334;48.710;9.622;2024-03-23T03:55:01;6.67;;;4.07;;
4642;SDS011;2334;48.710;9.622;2024-03-23T03:57:28;8.47;;;4.53;;
4642;SDS011;2334;48.710;9.622;2024-03-23T03:59:54;9.70;;;5.17;;
4642;SDS011;2334;48.710;9.622;2024-03-23T04:02:21;10.10;;;6.03;;
4642;SDS011;2334;48.710;9.622;2024-03-23T04:04:47;4.63;;;3.90;;
4642;SDS011;2334;48.710;9.622;2024-03-23T04:07:15;7.70;;;4.87;;
4642;SDS011;2334;48.710;9.622;2024-03-23T04:09:42;5.40;;;4.20;;
4642;SDS011;2334;48.710;9.622;2024-03-23T04:12:09;5.50;;;4.37;;
4642;SDS011;2334;48.710;9.622;2024-03-23T04:14:35;4.60;;;4.20;;
4642;SDS011;2334;48.710;9.622;2024-03-23T04:17:02;10.13;;;4.40;;
4642;SDS011;2334;48.710;9.622;2024-03-23T04:19:28;6.27;;;4.53;;
4642;SDS011;2334;48.710;9.622;2024-03-23T04:21:55;6.00;;;4.27;;
4642;SDS011;2334;48.710;9.622;2024-03-23T04:24:22;6.97;;;3.73;;
4642;SDS011;2334;48.710;9.622;2024-03-23T04:26:51;6.47;;;4.10;;
4642;SDS011;2334;48.710;9.622;2024-03-23T04:29:17;9.37;;;5.70;;
4642;SDS011;2334;48.710;9.622;2024-03-23T04:31:44;10.43;;;4.27;;
4642;SDS011;2334;48.710;9.622;2024-03-23T04:34:09;5.30;;;4.23;;
4642;SDS011;2334;48.710;9.622;2024-03-23T04:36:36;6.47;;;4.00;;
4642;SDS011;2334;48.710;9.622;2024-03-23T04:39:02;5.10;;;4.33;;
4642;SDS011;2334;48.710;9.622;2024-03-23T04:41:30;5.67;;;4.10;;
4642;SDS011;2334;48.710;9.622;2024-03-23T04:43:57;4.93;;;4.33;;
4642;SDS011;2334;48.710;9.622;2024-03-23T04:46:24;4.73;;;3.90;;
4642;SDS011;2334;48.710;9.622;2024-03-23T04:48:51;8.40;;;4.80;;
4642;SDS011;2334;48.710;9.622;2024-03-23T04:51:21;6.70;;;4.53;;
4642;SDS011;2334;48.710;9.622;2024-03-23T04:53:49;5.43;;;4.00;;
4642;SDS011;2334;48.710;9.622;2024-03-23T04:56:16;5.33;;;4.20;;
4642;SDS011;2334;48.710;9.622;2024-03-23T04:58:43;6.50;;;4.60;;
4642;SDS011;2334;48.710;9.622;2024-03-23T05:01:10;10.53;;;5.13;;
4642;SDS011;2334;48.710;9.622;2024-03-23T05:03:37;7.60;;;4.77;;
4642;SDS011;2334;48.710;9.622;2024-03-23T05:06:04;6.60;;;4.33;;
4642;SDS011;2334;48.710;9.622;2024-03-23T05:08:30;8.60;;;4.73;;
4642;SDS011;2334;48.710;9.622;2024-03-23T05:10:57;6.27;;;4.37;;
4642;SDS011;2334;48.710;9.622;2024-03-23T05:13:23;8.70;;;4.33;;
4642;SDS011;2334;48.710;9.622;2024-03-23T05:15:54;10.00;;;4.70;;
4642;SDS011;2334;48.710;9.622;2024-03-23T05:18:20;11.10;;;4.50;;
4642;SDS011;2334;48.710;9.622;2024-03-23T05:20:47;6.70;;;4.20;;
4642;SDS011;2334;48.710;9.622;2024-03-23T05:23:13;5.33;;;4.03;;
4642;SDS011;2334;48.710;9.622;2024-03-23T05:25:40;8.20;;;4.00;;
4642;SDS011;2334;48.710;9.622;2024-03-23T05:28:06;12.90;;;5.30;;
4642;SDS011;2334;48.710;9.622;2024-03-23T05:30:33;8.50;;;5.73;;
4642;SDS011;2334;48.710;9.622;2024-03-23T05:33:00;8.57;;;5.67;;
4642;SDS011;2334;48.710;9.622;2024-03-23T05:35:27;8.07;;;4.60;;
4642;SDS011;2334;48.710;9.622;2024-03-23T05:37:53;12.97;;;7.53;;
4642;SDS011;2334;48.710;9.622;2024-03-23T05:40:20;13.27;;;7.40;;
4642;SDS011;2334;48.710;9.622;2024-03-23T05:42:45;19.93;;;9.97;;
4642;SDS011;2334;48.710;9.622;2024-03-23T05:45:12;24.50;;;11.60;;
4642;SDS011;2334;48.710;9.622;2024-03-23T05:47:39;22.30;;;10.83;;
4642;SDS011;2334;48.710;9.622;2024-03-23T05:50:07;17.23;;;9.33;;
4642;SDS011;2334;48.710;9.622;2024-03-23T05:52:36;19.87;;;9.30;;
4642;SDS011;2334;48.710;9.622;2024-03-23T05:55:02;18.27;;;8.77;;
4642;SDS011;2334;48.710;9.622;2024-03-23T05:57:29;16.00;;;8.60;;
4642;SDS011;2334;48.710;9.622;2024-03-23T05:59:56;16.53;;;9.93;;
4642;SDS011;2334;48.710;9.622;2024-03-23T06:02:22;16.93;;;7.93;;
4642;SDS011;2334;48.710;9.622;2024-03-23T06:04:48;15.70;;;7.87;;
4642;SDS011;2334;48.710;9.622;2024-03-23T06:07:16;13.03;;;8.97;;
4642;SDS011;2334;48.710;9.622;2024-03-23T06:09:43;17.70;;;9.43;;
4642;SDS011;2334;48.710;9.622;2024-03-23T06:12:09;22.07;;;8.70;;
4642;SDS011;2334;48.710;9.622;2024-03-23T06:14:35;17.37;;;8.53;;
4642;SDS011;2334;48.710;9.622;2024-03-23T06:17:01;17.40;;;9.80;;
4642;SDS011;2334;48.710;9.622;2024-03-23T06:19:28;17.40;;;8.73;;
4642;SDS011;2334;48.710;9.622;2024-03-23T06:21:54;19.00;;;8.27;;
4642;SDS011;2334;48.710;9.622;2024-03-23T06:24:22;14.60;;;7.33;;
4642;SDS011;2334;48.710;9.622;2024-03-23T06:26:49;15.57;;;7.00;;
4642;SDS011;2334;48.710;9.622;2024-03-23T06:29:16;14.33;;;6.50;;
4642;SDS011;2334;48.710;9.622;2024-03-23T06:31:42;9.70;;;6.27;;
4642;SDS011;2334;48.710;9.622;2024-03-23T06:34:09;11.80;;;5.20;;
4642;SDS011;2334;48.710;9.622;2024-03-23T06:36:35;14.83;;;6.10;;
4642;SDS011;2334;48.710;9.622;2024-03-23T06:39:03;8.07;;;5.47;;
4642;SDS011;2334;48.710;9.622;2024-03-23T06:41:30;7.90;;;5.17;;
4642;SDS011;2334;48.710;9.622;2024-03-23T06:43:57;17.27;;;6.73;;
4642;SDS011;2334;48.710;9.622;2024-03-23T06:46:23;8.87;;;4.17;;
4642;SDS011;2334;48.710;9.622;2024-03-23T06:48:50;7.23;;;3.70;;
4642;SDS011;2334;48.710;9.622;2024-03-23T06:51:16;6.13;;;3.70;;
4642;SDS011;2334;48.710;9.622;2024-03-23T06:53:43;6.23;;;3.50;;
4642;SDS011;2334;48.710;9.622;2024-03-23T06:56:08;8.20;;;3.80;;
4642;SDS011;2334;48.710;9.622;2024-03-23T06:58:37;6.13;;;4.03;;
4642;SDS011;2334;48.710;9.622;2024-03-23T07:01:03;6.63;;;4.87;;
4642;SDS011;2334;48.710;9.622;2024-03-23T07:03:30;10.00;;;4.50;;
4642;SDS011;2334;48.710;9.622;2024-03-23T07:05:57;8.03;;;3.97;;
4642;SDS011;2334;48.710;9.622;2024-03-23T07:08:24;4.50;;;3.03;;
4642;SDS011;2334;48.710;9.622;2024-03-23T07:10:50;2.23;;;1.90;;
4642;SDS011;2334;48.710;9.622;2024-03-23T07:13:17;2.93;;;2.17;;
4642;SDS011;2334;48.710;9.622;2024-03-23T07:15:44;4.00;;;2.10;;
4642;SDS011;2334;48.710;9.622;2024-03-23T07:18:17;2.60;;;1.60;;
4642;SDS011;2334;48.710;9.622;2024-03-23T07:20:51;1.27;;;1.17;;
4642;SDS011;2334;48.710;9.622;2024-03-23T07:23:19;1.10;;;1.00;;
4642;SDS011;2334;48.710;9.622;2024-03-23T07:25:45;1.03;;;0.93;;
4642;SDS011;2334;48.710;9.622;2024-03-23T07:28:21;1.20;;;0.70;;
4642;SDS011;2334;48.710;9.622;2024-03-23T07:30:49;1.50;;;0.83;;
4642;SDS011;2334;48.710;9.622;2024-03-23T07:33:29;0.63;;;0.63;;
4642;SDS011;2334;48.710;9.622;2024-03-23T07:35:55;1.23;;;1.23;;
4642;SDS011;2334;48.710;9.622;2024-03-23T07:38:21;0.63;;;0.63;;
4642;SDS011;2334;48.710;9.622;2024-03-23T07:40:48;0.70;;;0.70;;
4642;SDS011;2334;48.710;9.622;2024-03-23T07:43:20;0.60;;;0.60;;
4642;SDS011;2334;48.710;9.622;2024-03-23T07:45:52;0.50;;;0.50;;
4642;SDS011;2334;48.710;9.622;2024-03-23T07:48:20;0.70;;;0.70;;
4642;SDS011;2334;48.710;9.622;2024-03-23T07:50:55;0.40;;;0.40;;
4642;SDS011;2334;48.710;9.622;2024-03-23T07:53:23;0.40;;;0.40;;
4642;SDS011;2334;48.710;9.622;2024-03-23T07:55:52;0.47;;;0.47;;
4642;SDS011;2334;48.710;9.622;2024-03-23T07:58:20;0.40;;;0.40;;
4642;SDS011;2334;48.710;9.622;2024-03-23T08:00:46;0.50;;;0.50;;
4642;SDS011;2334;48.710;9.622;2024-03-23T08:03:15;0.40;;;0.40;;
4642;SDS011;2334;48.710;9.622;2024-03-23T08:05:41;1.30;;;0.50;;
4642;SDS011;2334;48.710;9.622;2024-03-23T08:08:08;1.17;;;0.57;;
4642;SDS011;2334;48.710;9.622;2024-03-23T08:10:34;0.50;;;0.50;;
4642;SDS011;2334;48.710;9.622;2024-03-23T08:13:01;0.40;;;0.40;;
4642;SDS011;2334;48.710;9.622;2024-03-23T08:15:26;0.40;;;0.40;;
4642;SDS011;2334;48.710;9.622;2024-03-23T08:17:57;0.40;;;0.40;;
4642;SDS011;2334;48.710;9.622;2024-03-23T08:20:26;0.50;;;0.50;;
4642;SDS011;2334;48.710;9.622;2024-03-23T08:22:52;0.67;;;0.67;;
4642;SDS011;2334;48.710;9.622;2024-03-23T08:25:19;0.67;;;0.60;;
4642;SDS011;2334;48.710;9.622;2024-03-23T08:27:45;0.57;;;0.57;;
4642;SDS011;2334;48.710;9.622;2024-03-23T08:30:12;0.50;;;0.50;;
4642;SDS011;2334;48.710;9.622;2024-03-23T08:32:38;0.70;;;0.70;;
4642;SDS011;2334;48.710;9.622;2024-03-23T08:35:05;0.50;;;0.50;;
4642;SDS011;2334;48.710;9.622;2024-03-23T08:37:33;0.50;;;0.50;;
4642;SDS011;2334;48.710;9.622;2024-03-23T08:40:00;1.47;;;0.60;;
4642;SDS011;2334;48.710;9.622;2024-03-23T08:42:27;1.40;;;0.53;;
4642;SDS011;2334;48.710;9.622;2024-03-23T08:44:54;0.83;;;0.60;;
4642;SDS011;2334;48.710;9.622;2024-03-23T08:47:19;0.50;;;0.50;;
4642;SDS011;2334;48.710;9.622;2024-03-23T08:49:46;1.00;;;0.60;;
4642;SDS011;2334;48.710;9.622;2024-03-23T08:52:12;0.60;;;0.60;;
4642;SDS011;2334;48.710;9.622;2024-03-23T08:54:41;0.70;;;0.70;;
4642;SDS011;2334;48.710;9.622;2024-03-23T08:57:07;0.50;;;0.50;;
4642;SDS011;2334;48.710;9.622;2024-03-23T08:59:34;0.80;;;0.73;;
4642;SDS011;2334;48.710;9.622;2024-03-23T09:01:59;0.80;;;0.80;;
4642;SDS011;2334;48.710;9.622;2024-03-23T09:04:26;0.50;;;0.50;;
4642;SDS011;2334;48.710;9.622;2024-03-23T09:06:52;1.63;;;0.97;;
4642;SDS011;2334;48.710;9.622;2024-03-23T09:09:19;0.60;;;0.60;;
4642;SDS011;2334;48.710;9.622;2024-03-23T09:11:46;6.17;;;0.70;;
4642;SDS011;2334;48.710;9.622;2024-03-23T09:14:13;0.90;;;0.90;;
4642;SDS011;2334;48.710;9.622;2024-03-23T09:16:39;1.50;;;1.30;;
4642;SDS011;2334;48.710;9.622;2024-03-23T09:19:06;1.30;;;0.97;;
4642;SDS011;2334;48.710;9.622;2024-03-23T09:21:32;1.10;;;1.00;;
4642;SDS011;2334;48.710;9.622;2024-03-23T09:23:59;1.07;;;1.07;;
4642;SDS011;2334;48.710;9.622;2024-03-23T09:26:25;2.23;;;1.00;;
4642;SDS011;2334;48.710;9.622;2024-03-23T09:28:53;2.20;;;1.20;;
4642;SDS011;2334;48.710;9.622;2024-03-23T09:31:19;1.90;;;1.37;;
4642;SDS011;2334;48.710;9.622;2024-03-23T09:33:47;6.03;;;2.03;;
4642;SDS011;2334;48.710;9.622;2024-03-23T09:36:13;2.83;;;1.87;;
4642;SDS011;2334;48.710;9.622;2024-03-23T09:38:40;8.50;;;2.60;;
4642;SDS011;2334;48.710;9.622;2024-03-23T09:41:06;4.53;;;1.70;;
4642;SDS011;2334;48.710;9.622;2024-03-23T09:43:34;2.70;;;2.03;;
4642;SDS011;2334;48.710;9.622;2024-03-23T09:46:02;5.17;;;1.67;;
4642;SDS011;2334;48.710;9.622;2024-03-23T09:48:30;6.63;;;2.10;;
4642;SDS011;2334;48.710;9.622;2024-03-23T09:50:56;2.43;;;1.73;;
4642;SDS011;2334;48.710;9.622;2024-03-23T09:53:28;4.00;;;1.73;;
4642;SDS011;2334;48.710;9.622;2024-03-23T09:55:54;5.17;;;1.80;;
4642;SDS011;2334;48.710;9.622;2024-03-23T09:58:23;4.97;;;1.97;;
4642;SDS011;2334;48.710;9.622;2024-03-23T10:00:49;3.27;;;1.40;;
4642;SDS011;2334;48.710;9.622;2024-03-23T10:03:17;2.60;;;1.30;;
4642;SDS011;2334;48.710;9.622;2024-03-23T10:05:43;3.57;;;1.90;;
4642;SDS011;2334;48.710;9.622;2024-03-23T10:08:19;11.37;;;1.70;;
4642;SDS011;2334;48.710;9.622;2024-03-23T10:10:45;6.90;;;1.80;;
4642;SDS011;2334;48.710;9.622;2024-03-23T10:13:23;4.60;;;1.40;;
4642;SDS011;2334;48.710;9.622;2024-03-23T10:15:54;5.33;;;1.70;;
4642;SDS011;2334;48.710;9.622;2024-03-23T10:18:23;3.03;;;1.57;;
4642;SDS011;2334;48.710;9.622;2024-03-23T10:21:07;8.70;;;1.70;;
4642;SDS011;2334;48.710;9.622;2024-03-23T10:23:36;2.90;;;1.97;;
4642;SDS011;2334;48.710;9.622;2024-03-23T10:26:13;9.73;;;2.27;;
4642;SDS011;2334;48.710;9.622;2024-03-23T10:28:55;2.10;;;1.90;;
4642;SDS011;2334;48.710;9.622;2024-03-23T10:31:23;2.67;;;1.47;;
4642;SDS011;2334;48.710;9.622;2024-03-23T10:33:51;4.40;;;1.67;;
4642;SDS011;2334;48.710;9.622;2024-03-23T10:36:19;2.47;;;1.70;;
4642;SDS011;2334;48.710;9.622;2024-03-23T10:38:46;2.80;;;1.80;;
4642;SDS011;2334;48.710;9.622;2024-03-23T10:41:14;4.23;;;2.30;;
4642;SDS011;2334;48.710;9.622;2024-03-23T10:43:41;6.00;;;2.00;;
4642;SDS011;2334;48.710;9.622;2024-03-23T10:46:09;3.00;;;2.03;;
4642;SDS011;2334;48.710;9.622;2024-03-23T10:48:36;3.93;;;1.40;;
4642;SDS011;2334;48.710;9.622;2024-03-23T10:51:04;5.10;;;1.80;;
4642;SDS011;2334;48.710;9.622;2024-03-23T10:53:33;5.30;;;2.00;;
4642;SDS011;2334;48.710;9.622;2024-03-23T10:55:59;4.50;;;2.33;;
4642;SDS011;2334;48.710;9.622;2024-03-23T10:58:27;4.47;;;2.00;;
4642;SDS011;2334;48.710;9.622;2024-03-23T11:00:56;6.50;;;2.50;;
4642;SDS011;2334;48.710;9.622;2024-03-23T11:03:34;4.60;;;2.40;;
4642;SDS011;2334;48.710;9.622;2024-03-23T11:06:02;5.10;;;2.13;;
4642;SDS011;2334;48.710;9.622;2024-03-23T11:08:31;5.00;;;1.63;;
4642;SDS011;2334;48.710;9.622;2024-03-23T11:11:11;7.30;;;2.50;;
4642;SDS011;2334;48.710;9.622;2024-03-23T11:13:44;2.60;;;1.70;;
4642;SDS011;2334;48.710;9.622;2024-03-23T11:16:14;2.83;;;1.70;;
4642;SDS011;2334;48.710;9.622;2024-03-23T11:18:41;5.53;;;2.00;;
4642;SDS011;2334;48.710;9.622;2024-03-23T11:21:08;2.63;;;1.80;;
4642;SDS011;2334;48.710;9.622;2024-03-23T11:23:38;3.53;;;2.00;;
4642;SDS011;2334;48.710;9.622;2024-03-23T11:26:07;4.43;;;2.50;;
4642;SDS011;2334;48.710;9.622;2024-03-23T11:28:34;7.07;;;2.57;;
4642;SDS011;2334;48.710;9.622;2024-03-23T11:31:00;4.93;;;2.40;;
4642;SDS011;2334;48.710;9.622;2024-03-23T11:33:27;3.60;;;3.27;;
4642;SDS011;2334;48.710;9.622;2024-03-23T11:35:54;9.07;;;3.77;;
4642;SDS011;2334;48.710;9.622;2024-03-23T11:38:21;12.77;;;2.77;;
4642;SDS011;2334;48.710;9.622;2024-03-23T11:40:49;10.23;;;3.50;;
4642;SDS011;2334;48.710;9.622;2024-03-23T11:43:16;8.10;;;3.13;;
4642;SDS011;2334;48.710;9.622;2024-03-23T11:45:44;7.37;;;2.13;;
4642;SDS011;2334;48.710;9.622;2024-03-23T11:48:13;8.67;;;3.90;;
4642;SDS011;2334;48.710;9.622;2024-03-23T11:50:40;4.50;;;2.70;;
4642;SDS011;2334;48.710;9.622;2024-03-23T11:53:09;6.23;;;2.10;;
4642;SDS011;2334;48.710;9.622;2024-03-23T11:55:42;5.90;;;3.20;;
4642;SDS011;2334;48.710;9.622;2024-03-23T11:58:15;6.90;;;3.97;;
4642;SDS011;2334;48.710;9.622;2024-03-23T12:00:41;7.47;;;4.10;;
4642;SDS011;2334;48.710;9.622;2024-03-23T12:03:16;6.70;;;2.80;;
4642;SDS011;2334;48.710;9.622;2024-03-23T12:05:42;15.73;;;6.23;;
4642;SDS011;2334;48.710;9.622;2024-03-23T12:08:15;11.47;;;4.93;;
4642;SDS011;2334;48.710;9.622;2024-03-23T12:10:47;9.20;;;5.70;;
4642;SDS011;2334;48.710;9.622;2024-03-23T12:13:17;13.93;;;6.50;;
4642;SDS011;2334;48.710;9.622;2024-03-23T12:15:44;12.40;;;5.23;;
4642;SDS011;2334;48.710;9.622;2024-03-23T12:18:12;5.13;;;2.73;;
4642;SDS011;2334;48.710;9.622;2024-03-23T12:20:38;3.30;;;2.87;;
4642;SDS011;2334;48.710;9.622;2024-03-23T12:23:05;5.63;;;2.30;;
4642;SDS011;2334;48.710;9.622;2024-03-23T12:25:36;3.13;;;1.60;;
4642;SDS011;2334;48.710;9.622;2024-03-23T12:28:04;11.60;;;4.33;;
4642;SDS011;2334;48.710;9.622;2024-03-23T12:30:33;8.67;;;3.17;;
4642;SDS011;2334;48.710;9.622;2024-03-23T12:33:00;6.13;;;2.60;;
4642;SDS011;2334;48.710;9.622;2024-03-23T12:35:26;2.90;;;1.20;;
4642;SDS011;2334;48.710;9.622;2024-03-23T12:37:53;4.53;;;2.17;;
4642;SDS011;2334;48.710;9.622;2024-03-23T12:40:19;8.20;;;2.70;;
4642;SDS011;2334;48.710;9.622;2024-03-23T12:42:46;2.70;;;2.10;;
4642;SDS011;2334;48.710;9.622;2024-03-23T12:45:12;2.50;;;1.80;;
4642;SDS011;2334;48.710;9.622;2024-03-23T12:47:40;6.30;;;1.77;;
4642;SDS011;2334;48.710;9.622;2024-03-23T12:50:06;5.90;;;2.60;;
4642;SDS011;2334;48.710;9.622;2024-03-23T12:52:34;3.47;;;1.50;;
4642;SDS011;2334;48.710;9.622;2024-03-23T12:55:00;2.23;;;1.40;;
4642;SDS011;2334;48.710;9.622;2024-03-23T12:57:27;6.27;;;2.33;;
4642;SDS011;2334;48.710;9.622;2024-03-23T12:59:53;6.40;;;2.10;;
4642;SDS011;2334;48.710;9.622;2024-03-23T13:02:20;7.00;;;2.53;;
4642;SDS011;2334;48.710;9.622;2024-03-23T13:04:48;9.87;;;2.20;;
4642;SDS011;2334;48.710;9.622;2024-03-23T13:07:16;3.60;;;2.33;;
4642;SDS011;2334;48.710;9.622;2024-03-23T13:09:43;3.67;;;1.73;;
4642;SDS011;2334;48.710;9.622;2024-03-23T13:12:09;10.33;;;1.57;;
4642;SDS011;2334;48.710;9.622;2024-03-23T13:14:37;10.30;;;1.43;;
4642;SDS011;2334;48.710;9.622;2024-03-23T13:17:04;1.97;;;1.23;;
4642;SDS011;2334;48.710;9.622;2024-03-23T13:19:30;3.77;;;1.20;;
4642;SDS011;2334;48.710;9.622;2024-03-23T13:22:00;8.33;;;1.30;;
4642;SDS011;2334;48.710;9.622;2024-03-23T13:24:26;9.43;;;1.60;;
4642;SDS011;2334;48.710;9.622;2024-03-23T13:26:54;6.77;;;2.03;;
4642;SDS011;2334;48.710;9.622;2024-03-23T13:29:20;3.43;;;1.40;;
4642;SDS011;2334;48.710;9.622;2024-03-23T13:31:48;2.90;;;1.57;;
4642;SDS011;2334;48.710;9.622;2024-03-23T13:34:15;3.03;;;1.60;;
4642;SDS011;2334;48.710;9.622;2024-03-23T13:36:42;7.00;;;1.97;;
4642;SDS011;2334;48.710;9.622;2024-03-23T13:39:10;3.03;;;1.43;;
4642;SDS011;2334;48.710;9.622;2024-03-23T13:41:37;8.60;;;2.27;;
4642;SDS011;2334;48.710;9.622;2024-03-23T13:44:04;4.93;;;1.43;;
4642;SDS011;2334;48.710;9.622;2024-03-23T13:46:31;6.43;;;1.27;;
4642;SDS011;2334;48.710;9.622;2024-03-23T13:48:57;9.20;;;1.90;;
4642;SDS011;2334;48.710;9.622;2024-03-23T13:51:24;10.80;;;2.97;;
4642;SDS011;2334;48.710;9.622;2024-03-23T13:53:52;6.27;;;2.27;;
4642;SDS011;2334;48.710;9.622;2024-03-23T13:56:20;7.37;;;1.50;;
4642;SDS011;2334;48.710;9.622;2024-03-23T13:58:46;2.23;;;1.27;;
4642;SDS011;2334;48.710;9.622;2024-03-23T14:01:14;5.63;;;2.23;;
4642;SDS011;2334;48.710;9.622;2024-03-23T14:03:40;4.50;;;1.40;;
4642;SDS011;2334;48.710;9.622;2024-03-23T14:06:07;5.87;;;1.50;;
4642;SDS011;2334;48.710;9.622;2024-03-23T14:08:33;6.73;;;1.23;;
4642;SDS011;2334;48.710;9.622;2024-03-23T14:11:01;1.00;;;0.90;;
4642;SDS011;2334;48.710;9.622;2024-03-23T14:13:30;1.13;;;0.67;;
4642;SDS011;2334;48.710;9.622;2024-03-23T14:15:57;0.77;;;0.77;;
4642;SDS011;2334;48.710;9.622;2024-03-23T14:18:23;2.60;;;1.10;;
4642;SDS011;2334;48.710;9.622;2024-03-23T14:20:51;1.20;;;1.03;;
4642;SDS011;2334;48.710;9.622;2024-03-23T14:23:18;1.83;;;0.90;;
4642;SDS011;2334;48.710;9.622;2024-03-23T14:25:45;1.90;;;0.70;;
4642;SDS011;2334;48.710;9.622;2024-03-23T14:28:11;3.47;;;0.90;;
4642;SDS011;2334;48.710;9.622;2024-03-23T14:30:41;1.70;;;0.87;;
4642;SDS011;2334;48.710;9.622;2024-03-23T14:33:08;2.87;;;0.90;;
4642;SDS011;2334;48.710;9.622;2024-03-23T14:35:34;1.27;;;0.90;;
4642;SDS011;2334;48.710;9.622;2024-03-23T14:38:01;1.70;;;0.80;;
4642;SDS011;2334;48.710;9.622;2024-03-23T14:40:28;3.17;;;0.80;;
4642;SDS011;2334;48.710;9.622;2024-03-23T14:42:54;1.73;;;0.90;;
4642;SDS011;2334;48.710;9.622;2024-03-23T14:45:21;2.00;;;0.87;;
4642;SDS011;2334;48.710;9.622;2024-03-23T14:47:50;2.30;;;1.30;;
4642;SDS011;2334;48.710;9.622;2024-03-23T14:50:17;1.90;;;0.70;;
4642;SDS011;2334;48.710;9.622;2024-03-23T14:52:44;2.20;;;0.70;;
4642;SDS011;2334;48.710;9.622;2024-03-23T14:55:11;3.43;;;1.00;;
4642;SDS011;2334;48.710;9.622;2024-03-23T14:57:37;2.83;;;1.10;;
4642;SDS011;2334;48.710;9.622;2024-03-23T15:00:06;1.97;;;1.40;;
4642;SDS011;2334;48.710;9.622;2024-03-23T15:02:33;2.10;;;0.80;;
4642;SDS011;2334;48.710;9.622;2024-03-23T15:05:02;0.87;;;0.80;;
4642;SDS011;2334;48.710;9.622;2024-03-23T15:07:29;2.90;;;1.40;;
4642;SDS011;2334;48.710;9.622;2024-03-23T15:09:56;1.30;;;0.70;;
4642;SDS011;2334;48.710;9.622;2024-03-23T15:12:22;2.03;;;0.90;;
4642;SDS011;2334;48.710;9.622;2024-03-23T15:14:49;2.03;;;0.70;;
4642;SDS011;2334;48.710;9.622;2024-03-23T15:17:14;2.17;;;0.70;;
4642;SDS011;2334;48.710;9.622;2024-03-23T15:19:41;0.57;;;0.57;;
4642;SDS011;2334;48.710;9.622;2024-03-23T15:22:09;1.87;;;0.60;;
4642;SDS011;2334;48.710;9.622;2024-03-23T15:24:36;4.00;;;0.90;;
4642;SDS011;2334;48.710;9.622;2024-03-23T15:27:01;4.37;;;1.17;;
4642;SDS011;2334;48.710;9.622;2024-03-23T15:29:28;0.90;;;0.90;;
4642;SDS011;2334;48.710;9.622;2024-03-23T15:31:54;2.00;;;0.93;;
4642;SDS011;2334;48.710;9.622;2024-03-23T15:34:21;0.77;;;0.77;;
4642;SDS011;2334;48.710;9.622;2024-03-23T15:36:47;0.70;;;0.70;;
4642;SDS011;2334;48.710;9.622;2024-03-23T15:39:17;1.83;;;0.70;;
4642;SDS011;2334;48.710;9.622;2024-03-23T15:41:44;1.37;;;1.27;;
4642;SDS011;2334;48.710;9.622;2024-03-23T15:44:11;2.10;;;0.90;;
4642;SDS011;2334;48.710;9.622;2024-03-23T15:46:37;0.67;;;0.60;;
4642;SDS011;2334;48.710;9.622;2024-03-23T15:49:04;5.00;;;1.00;;
4642;SDS011;2334;48.710;9.622;2024-03-23T15:51:30;1.00;;;0.70;;
4642;SDS011;2334;48.710;9.622;2024-03-23T15:53:59;0.60;;;0.60;;
4642;SDS011;2334;48.710;9.622;2024-03-23T15:56:27;0.70;;;0.70;;
4642;SDS011;2334;48.710;9.622;2024-03-23T15:58:55;6.20;;;1.20;;
4642;SDS011;2334;48.710;9.622;2024-03-23T16:01:26;1.60;;;1.00;;
4642;SDS011;2334;48.710;9.622;2024-03-23T16:03:52;1.27;;;0.80;;